Time;durP1;ratioP1;P1;durP2;ratioP2;P2;SDS_P1;SDS_P2;PMS_P1;PMS_P2;Temp;Humidity;BMP_temperature;BMP_pressure;BME280_temperature;BME280_humidity;BME280_pressure;Samples;Min_cycle;Max_cycle;Signal;HPM_P1;HPM_P2
2022/09/10 00:04:43;;;;;;;10.45;4.30;;;;;15.70;100464.00;;;;13042574;22;20192;-74
2022/09/10 00:09:44;;;;;;;8.80;5.00;;;;;15.80;100462.00;;;;13018884;22;20256;-74
2022/09/10 00:14:45;;;;;;;11.40;4.37;;;;;15.90;100459.00;;;;13042349;22;20222;-74
2022/09/10 00:19:46;;;;;;;8.82;4.75;;;;;15.90;100467.00;;;;13091040;22;20166;-74
2022/09/10 00:24:47;;;;;;;12.45;4.38;;;;;16.00;100462.00;;;;13043741;22;20171;-74
2022/09/10 00:29:51;;;;;;;11.13;4.35;;;;;16.00;100462.00;;;;13043514;22;20172;-74
2022/09/10 00:34:53;;;;;;;10.85;4.22;;;;;16.00;100454.00;;;;13064820;22;20202;-74
2022/09/10 00:39:55;;;;;;;12.27;4.47;;;;;16.00;100458.00;;;;13042605;22;20167;-74
2022/09/10 00:44:59;;;;;;;10.60;3.90;;;;;16.00;100465.00;;;;13091178;22;20270;-74
2022/09/10 00:50:12;;;;;;;10.33;4.13;;;;;16.10;100469.00;;;;13117701;22;20164;-74
2022/09/10 00:55:15;;;;;;;9.20;3.50;;;;;16.00;100466.00;;;;13064054;22;20289;-74
2022/09/10 01:00:17;;;;;;;8.75;4.57;;;;;15.90;100474.00;;;;13089607;22;20164;-74
2022/09/10 01:05:18;;;;;;;11.60;4.18;;;;;15.90;100470.00;;;;13068870;22;20498;-75
2022/09/10 01:16:43;;;;;;;14.67;5.07;;;;;15.70;100459.00;;;;13091086;22;20367;-72
2022/09/10 01:22:08;;;;;;;9.60;4.77;;;;;15.80;100470.00;;;;13104466;22;20384;-72
2022/09/10 01:27:37;;;;;;;10.07;4.70;;;;;15.80;100465.00;;;;13153736;22;20617;-72
2022/09/10 01:32:49;;;;;;;9.93;4.40;;;;;15.80;100458.00;;;;13080365;22;20197;-72
2022/09/10 01:37:56;;;;;;;16.10;4.37;;;;;15.80;100472.00;;;;13153328;22;20174;-72
2022/09/10 01:43:17;;;;;;;14.87;5.37;;;;;15.80;100467.00;;;;13091858;22;20167;-72
2022/09/10 01:48:28;;;;;;;10.93;4.57;;;;;15.90;100476.00;;;;13149549;22;20675;-72
2022/09/10 01:53:44;;;;;;;10.83;4.90;;;;;15.90;100474.00;;;;13123990;22;20194;-72
2022/09/10 01:58:46;;;;;;;18.35;4.40;;;;;15.90;100472.00;;;;13125795;22;20597;-72
2022/09/10 02:04:05;;;;;;;13.25;4.95;;;;;16.00;100462.00;;;;13153347;22;20586;-72
2022/09/10 02:09:07;;;;;;;15.68;5.60;;;;;16.00;100469.00;;;;13081284;22;20224;-72
2022/09/10 02:14:14;;;;;;;10.98;5.43;;;;;16.00;100476.00;;;;13055550;22;20229;-72
2022/09/10 02:19:46;;;;;;;14.30;5.88;;;;;16.00;100474.00;;;;13162750;22;20158;-72
2022/09/10 02:24:47;;;;;;;10.73;5.32;;;;;16.00;100474.00;;;;13106729;22;20246;-72
2022/09/10 02:29:48;;;;;;;9.85;5.10;;;;;16.00;100471.00;;;;13152036;22;20158;-72
2022/09/10 02:34:49;;;;;;;11.23;5.55;;;;;16.00;100468.00;;;;13131781;22;20187;-72
2022/09/10 02:39:51;;;;;;;9.88;5.55;;;;;16.00;100463.00;;;;13108000;22;20183;-72
2022/09/10 02:44:52;;;;;;;11.55;6.13;;;;;16.00;100476.00;;;;13128585;22;20647;-72
2022/09/10 02:49:54;;;;;;;12.30;5.50;;;;;16.10;100481.00;;;;13082766;22;20175;-72
2022/09/10 02:54:56;;;;;;;12.87;5.87;;;;;16.10;100475.00;;;;13128788;22;20904;-72
2022/09/10 02:59:57;;;;;;;16.02;7.40;;;;;16.10;100470.00;;;;13155025;22;20243;-72
2022/09/10 03:04:58;;;;;;;8.55;6.18;;;;;16.10;100488.00;;;;13154820;22;20640;-72
2022/09/10 03:10:00;;;;;;;13.20;7.97;;;;;16.10;100476.00;;;;13154688;22;20633;-72
2022/09/10 03:15:02;;;;;;;14.70;8.35;;;;;16.10;100473.00;;;;13127368;22;20190;-72
2022/09/10 03:20:05;;;;;;;18.33;10.23;;;;;16.10;100464.00;;;;13154971;22;20173;-72
2022/09/10 03:25:06;;;;;;;17.38;10.52;;;;;16.10;100462.00;;;;13156143;22;20351;-72
2022/09/10 03:30:09;;;;;;;13.05;10.20;;;;;16.10;100466.00;;;;13106869;22;20484;-72
2022/09/10 03:35:12;;;;;;;13.20;9.05;;;;;16.00;100460.00;;;;13103596;22;20209;-72
2022/09/10 03:40:14;;;;;;;16.37;11.93;;;;;15.90;100453.00;;;;13130734;22;20172;-72
2022/09/10 03:45:17;;;;;;;16.77;14.93;;;;;15.90;100457.00;;;;13156322;22;20190;-72
2022/09/10 03:50:19;;;;;;;16.13;11.57;;;;;15.80;100467.00;;;;13108013;22;20668;-72
2022/09/10 03:55:21;;;;;;;16.80;12.23;;;;;15.90;100468.00;;;;13056851;22;20609;-72
2022/09/10 04:00:22;;;;;;;18.83;14.60;;;;;16.00;100462.00;;;;13081624;22;20175;-72
2022/09/10 04:05:26;;;;;;;19.35;15.05;;;;;16.00;100458.00;;;;13129883;22;20245;-72
2022/09/10 04:10:29;;;;;;;22.02;16.95;;;;;16.00;100458.00;;;;13182704;22;20170;-72
2022/09/10 04:15:30;;;;;;;24.48;16.65;;;;;16.00;100465.00;;;;13154431;22;20522;-72
2022/09/10 04:20:33;;;;;;;23.92;17.38;;;;;16.00;100471.00;;;;13106516;22;20174;-72
2022/09/10 04:25:40;;;;;;;29.38;17.05;;;;;16.00;100468.00;;;;13080848;22;20502;-72
2022/09/10 04:30:45;;;;;;;19.10;15.57;;;;;16.00;100471.00;;;;13105993;22;20475;-72
2022/09/10 04:35:47;;;;;;;22.58;18.13;;;;;16.00;100468.00;;;;13129020;22;20239;-72
2022/09/10 04:40:48;;;;;;;21.33;18.83;;;;;15.90;100464.00;;;;13105607;22;20672;-72
2022/09/10 04:45:49;;;;;;;24.13;19.13;;;;;15.90;100474.00;;;;13154747;22;20182;-72
2022/09/10 04:50:51;;;;;;;20.50;17.67;;;;;15.90;100484.00;;;;13132133;22;20163;-72
2022/09/10 04:56:14;;;;;;;20.95;17.20;;;;;15.90;100487.00;;;;13106256;22;20182;-72
2022/09/10 05:01:16;;;;;;;24.50;19.30;;;;;15.90;100481.00;;;;13105386;22;20170;-72
2022/09/10 05:06:19;;;;;;;21.73;18.15;;;;;15.90;100487.00;;;;13105900;22;20648;-72
2022/09/10 05:11:22;;;;;;;23.60;19.20;;;;;15.90;100496.00;;;;13079838;22;20174;-72
2022/09/10 05:16:24;;;;;;;28.92;21.05;;;;;15.90;100501.00;;;;13080366;22;20201;-72
2022/09/10 05:21:25;;;;;;;29.42;20.40;;;;;16.00;100505.00;;;;13105175;22;20185;-72
2022/09/10 05:26:28;;;;;;;29.10;22.60;;;;;16.00;100505.00;;;;13129066;22;20169;-72
2022/09/10 05:31:32;;;;;;;32.47;21.90;;;;;16.00;100499.00;;;;13081197;22;20167;-72
2022/09/10 05:36:34;;;;;;;27.30;22.77;;;;;16.10;100495.00;;;;13131944;22;20198;-72
2022/09/10 05:41:36;;;;;;;31.67;23.20;;;;;16.10;100503.00;;;;13103686;22;20183;-72
2022/09/10 05:46:38;;;;;;;30.52;23.23;;;;;16.10;100504.00;;;;13083857;22;20255;-72
2022/09/10 05:51:44;;;;;;;29.05;22.55;;;;;16.10;100514.00;;;;13030071;22;20185;-72
2022/09/10 05:56:46;;;;;;;33.47;23.58;;;;;16.20;100511.00;;;;13103754;22;20261;-72
2022/09/10 06:01:50;;;;;;;31.60;23.38;;;;;16.50;100515.00;;;;13103347;22;20254;-72
2022/09/10 06:06:53;;;;;;;27.35;22.25;;;;;16.70;100527.00;;;;13100143;22;20193;-72
2022/09/10 06:11:54;;;;;;;30.38;22.80;;;;;16.80;100545.00;;;;13125578;22;20183;-72
2022/09/10 06:16:58;;;;;;;26.83;21.38;;;;;16.90;100523.00;;;;13080813;22;20295;-72
2022/09/10 06:22:02;;;;;;;27.65;20.65;;;;;16.90;100534.00;;;;13107193;22;20530;-72
2022/09/10 06:27:08;;;;;;;27.10;20.20;;;;;16.80;100536.00;;;;13109140;22;20753;-72
2022/09/10 06:32:10;;;;;;;28.35;19.85;;;;;16.70;100541.00;;;;13109762;22;20171;-72
2022/09/10 06:37:12;;;;;;;24.42;19.65;;;;;16.70;100548.00;;;;13084890;22;20246;-72
2022/09/10 06:42:13;;;;;;;23.55;19.30;;;;;16.50;100559.00;;;;13156204;22;20254;-72
2022/09/10 06:47:40;;;;;;;24.85;18.80;;;;;16.50;100563.00;;;;13131320;22;20214;-72
2022/09/10 06:53:10;;;;;;;24.10;18.70;;;;;16.40;100565.00;;;;13101356;22;20183;-72
2022/09/10 06:58:12;;;;;;;26.58;20.20;;;;;16.50;100579.00;;;;13131275;22;20208;-72
2022/09/10 07:03:14;;;;;;;22.95;19.02;;;;;16.50;100587.00;;;;13149759;22;20194;-72
2022/09/10 07:08:17;;;;;;;25.17;20.13;;;;;16.60;100596.00;;;;13129305;22;20601;-72
2022/09/10 07:13:22;;;;;;;28.15;19.13;;;;;16.40;100590.00;;;;13056307;22;20195;-72
2022/09/10 07:18:24;;;;;;;25.92;19.70;;;;;16.30;100590.00;;;;13080871;22;20171;-73
2022/09/10 07:23:26;;;;;;;24.90;21.55;;;;;16.20;100601.00;;;;13156255;22;20213;-73
2022/09/10 07:28:27;;;;;;;26.63;20.20;;;;;16.20;100606.00;;;;13080740;22;20181;-73
2022/09/10 07:33:28;;;;;;;30.25;20.95;;;;;16.20;100618.00;;;;13106912;22;20656;-73
2022/09/10 07:38:30;;;;;;;31.45;21.17;;;;;16.40;100617.00;;;;13155297;22;20253;-72
2022/09/10 07:43:32;;;;;;;25.27;21.52;;;;;16.60;100623.00;;;;13128517;22;20163;-72
2022/09/10 07:48:34;;;;;;;24.80;20.10;;;;;16.60;100626.00;;;;13155437;22;20155;-72
2022/09/10 07:53:35;;;;;;;27.08;20.27;;;;;16.70;100632.00;;;;13080047;22;20225;-72
2022/09/10 07:58:39;;;;;;;24.65;20.33;;;;;16.90;100624.00;;;;13081224;22;20170;-73
2022/09/10 08:03:43;;;;;;;28.95;20.25;;;;;17.00;100624.00;;;;13106265;22;20205;-73
2022/09/10 08:08:47;;;;;;;24.50;19.25;;;;;17.30;100629.00;;;;13081076;22;20541;-73
2022/09/10 08:13:51;;;;;;;21.08;18.80;;;;;17.60;100629.00;;;;13153376;22;20198;-72
2022/09/10 08:18:56;;;;;;;22.92;17.33;;;;;17.90;100625.00;;;;13146160;22;20251;-73
2022/09/10 08:23:59;;;;;;;22.90;17.48;;;;;18.20;100632.00;;;;13100298;22;20190;-73
2022/09/10 08:29:03;;;;;;;24.38;16.10;;;;;18.50;100651.00;;;;13107075;22;20171;-73
2022/09/10 08:34:05;;;;;;;23.95;16.38;;;;;18.80;100658.00;;;;13153404;22;20191;-72
2022/09/10 08:39:10;;;;;;;18.48;15.55;;;;;18.80;100675.00;;;;13106346;22;20639;-73
2022/09/10 08:44:23;;;;;;;21.05;15.45;;;;;18.20;100680.00;;;;13096540;22;20178;-74
2022/09/10 08:49:44;;;;;;;24.15;15.38;;;;;18.20;100684.00;;;;13124546;22;20238;-73
2022/09/10 08:54:58;;;;;;;21.55;17.38;;;;;18.40;100700.00;;;;13150430;22;20191;-73
2022/09/10 09:00:01;;;;;;;20.58;16.80;;;;;19.50;100692.00;;;;13123504;22;20683;-73
2022/09/10 09:05:21;;;;;;;16.00;13.48;;;;;21.00;100678.00;;;;13079806;22;20466;-73
2022/09/10 09:10:40;;;;;;;16.73;12.52;;;;;21.70;100691.00;;;;13125705;22;20645;-72
2022/09/10 09:16:02;;;;;;;13.82;10.38;;;;;21.10;100686.00;;;;13126899;22;20186;-73
2022/09/10 09:21:40;;;;;;;17.67;10.82;;;;;20.70;100677.00;;;;13106489;22;20174;-73
2022/09/10 09:26:45;;;;;;;11.77;9.45;;;;;20.30;100678.00;;;;13154631;22;20231;-73
2022/09/10 09:31:50;;;;;;;16.17;9.10;;;;;20.60;100679.00;;;;13106515;22;20245;-73
2022/09/10 09:36:55;;;;;;;12.23;9.65;;;;;21.20;100671.00;;;;13153659;22;20192;-73
2022/09/10 09:42:18;;;;;;;14.07;7.53;;;;;23.30;100672.00;;;;13105831;22;20175;-73
2022/09/10 09:47:22;;;;;;;10.60;6.47;;;;;23.10;100693.00;;;;13106645;22;20174;-73
2022/09/10 09:52:28;;;;;;;9.15;6.75;;;;;22.10;100706.00;;;;13153014;22;20255;-73
2022/09/10 09:57:29;;;;;;;12.77;7.07;;;;;20.80;100708.00;;;;13152391;22;20709;-73
2022/09/10 10:02:35;;;;;;;12.25;7.53;;;;;19.60;100709.00;;;;13100134;22;20502;-73
2022/09/10 10:07:36;;;;;;;11.15;8.50;;;;;19.40;100693.00;;;;13106123;22;20171;-73
2022/09/10 10:12:46;;;;;;;12.05;7.68;;;;;20.30;100694.00;;;;13149660;22;20183;-72
2022/09/10 10:17:48;;;;;;;12.40;8.18;;;;;21.30;100689.00;;;;13104150;22;20246;-73
2022/09/10 10:22:50;;;;;;;11.43;7.20;;;;;21.70;100679.00;;;;13078785;22;20174;-73
2022/09/10 10:27:53;;;;;;;8.20;6.68;;;;;20.80;100691.00;;;;13130825;22;20179;-73
2022/09/10 10:32:58;;;;;;;7.50;6.80;;;;;20.30;100689.00;;;;13084084;22;20202;-73
2022/09/10 10:38:21;;;;;;;9.48;6.25;;;;;20.50;100704.00;;;;13081140;22;20175;-73
2022/09/10 10:43:58;;;;;;;7.15;5.50;;;;;20.80;100702.00;;;;13155927;22;20541;-73
2022/09/10 10:49:18;;;;;;;11.60;5.05;;;;;21.60;100699.00;;;;13106912;22;20224;-72
2022/09/10 10:54:46;;;;;;;7.13;4.45;;;;;22.20;100704.00;;;;13106259;22;20229;-72
2022/09/10 11:00:07;;;;;;;11.25;4.55;;;;;22.60;100697.00;;;;13034310;22;20258;-72
2022/09/10 11:05:34;;;;;;;9.93;3.90;;;;;22.40;100689.00;;;;13081851;22;20171;-72
2022/09/10 11:10:41;;;;;;;5.28;3.97;;;;;21.30;100705.00;;;;13106747;22;20166;-72
2022/09/10 11:15:54;;;;;;;7.40;4.70;;;;;20.70;100695.00;;;;13128229;22;20246;-72
2022/09/10 11:21:02;;;;;;;7.82;3.70;;;;;20.20;100701.00;;;;13128360;22;20738;-72
2022/09/10 11:26:16;;;;;;;4.75;3.85;;;;;19.50;100698.00;;;;13128676;22;20244;-72
2022/09/10 11:31:29;;;;;;;8.48;4.30;;;;;18.90;100692.00;;;;13107314;22;20247;-72
2022/09/10 11:36:45;;;;;;;8.40;5.22;;;;;18.60;100699.00;;;;13157370;22;20201;-73
2022/09/10 11:41:52;;;;;;;10.20;5.63;;;;;18.50;100710.00;;;;13157270;22;20165;-72
2022/09/10 11:46:53;;;;;;;11.05;5.95;;;;;18.30;100692.00;;;;13103913;22;20892;-72
2022/09/10 11:51:55;;;;;;;13.25;6.20;;;;;18.30;100696.00;;;;13154539;22;20217;-73
2022/09/10 11:57:12;;;;;;;12.18;6.50;;;;;18.20;100702.00;;;;13154052;22;20705;-72
2022/09/10 12:02:26;;;;;;;12.45;6.22;;;;;18.00;100712.00;;;;13106780;22;20225;-72
2022/09/10 12:07:52;;;;;;;8.52;5.47;;;;;17.70;100729.00;;;;13080208;22;20385;-73
2022/09/10 12:12:54;;;;;;;8.43;5.90;;;;;17.50;100743.00;;;;13079975;22;20286;-72
2022/09/10 12:18:14;;;;;;;10.75;6.22;;;;;17.40;100738.00;;;;13079555;22;20731;-72
2022/09/10 12:23:20;;;;;;;11.65;6.30;;;;;17.30;100745.00;;;;13106333;22;20762;-72
2022/09/10 12:28:40;;;;;;;6.80;5.93;;;;;17.40;100755.00;;;;13106012;22;20171;-72
2022/09/10 12:33:42;;;;;;;8.25;6.60;;;;;17.30;100758.00;;;;13153150;22;20202;-72
2022/09/10 12:38:44;;;;;;;9.10;6.05;;;;;17.30;100756.00;;;;13106697;22;20175;-72
2022/09/10 12:43:45;;;;;;;13.75;7.43;;;;;17.30;100769.00;;;;13106390;22;20178;-72
2022/09/10 12:48:49;;;;;;;12.20;7.93;;;;;17.30;100767.00;;;;13080557;22;20175;-72
2022/09/10 12:54:02;;;;;;;13.40;9.15;;;;;17.20;100756.00;;;;13080656;22;20197;-72
2022/09/10 12:59:18;;;;;;;13.07;9.05;;;;;17.20;100756.00;;;;13124633;22;20634;-72
2022/09/10 13:04:35;;;;;;;11.75;8.93;;;;;17.10;100764.00;;;;13131365;22;20162;-72
2022/09/10 13:09:38;;;;;;;16.40;9.40;;;;;17.10;100771.00;;;;13127133;22;20211;-73
2022/09/10 13:14:45;;;;;;;12.02;8.55;;;;;17.10;100782.00;;;;13137715;22;20186;-73
2022/09/10 13:19:48;;;;;;;10.57;8.80;;;;;17.00;100785.00;;;;13126548;22;20155;-73
2022/09/10 13:25:02;;;;;;;10.70;8.38;;;;;17.00;100808.00;;;;13115973;22;20171;-73
2022/09/10 13:30:13;;;;;;;9.93;7.80;;;;;17.20;100792.00;;;;13119082;22;20200;-72
2022/09/10 13:35:20;;;;;;;10.95;8.30;;;;;17.80;100790.00;;;;13100653;22;20205;-72
2022/09/10 13:40:49;;;;;;;11.30;8.68;;;;;18.60;100782.00;;;;13096382;22;20747;-72
2022/09/10 13:45:54;;;;;;;11.88;7.43;;;;;18.80;100785.00;;;;13147420;22;20246;-71
2022/09/10 13:51:07;;;;;;;13.60;7.88;;;;;18.90;100783.00;;;;13150933;22;20399;-71
2022/09/10 13:56:36;;;;;;;10.45;7.10;;;;;19.10;100784.00;;;;13130050;22;20657;-71
2022/09/10 14:01:49;;;;;;;10.05;6.53;;;;;19.40;100794.00;;;;13125823;22;20236;-71
2022/09/10 14:06:52;;;;;;;12.57;6.57;;;;;19.60;100803.00;;;;13081258;22;20174;-71
2022/09/10 14:11:54;;;;;;;11.30;7.07;;;;;19.90;100805.00;;;;13154725;22;20214;-72
2022/09/10 14:17:19;;;;;;;11.25;6.18;;;;;19.90;100816.00;;;;13132736;22;20229;-71
2022/09/10 14:22:21;;;;;;;14.20;6.95;;;;;19.70;100817.00;;;;13152525;22;20753;-72
2022/09/10 14:27:29;;;;;;;8.52;5.93;;;;;19.90;100819.00;;;;13132018;22;20819;-72
2022/09/10 14:32:35;;;;;;;8.15;5.50;;;;;19.90;100829.00;;;;13080215;22;20250;-71
2022/09/10 14:37:36;;;;;;;6.82;4.93;;;;;19.70;100822.00;;;;13106984;22;20199;-71
2022/09/10 14:42:38;;;;;;;6.90;4.60;;;;;19.40;100825.00;;;;13106827;22;20166;-71
2022/09/10 14:47:50;;;;;;;5.15;3.88;;;;;19.20;100822.00;;;;13104479;22;20232;-71
2022/09/10 14:52:52;;;;;;;5.05;3.60;;;;;19.00;100828.00;;;;13078262;22;20265;-71
2022/09/10 14:57:54;;;;;;;6.55;4.07;;;;;19.00;100825.00;;;;13131757;22;20175;-71
2022/09/10 15:02:56;;;;;;;5.72;4.10;;;;;19.60;100824.00;;;;13079516;22;20174;-71
2022/09/10 15:07:57;;;;;;;7.32;4.00;;;;;19.40;100822.00;;;;13106021;22;20258;-71
2022/09/10 15:12:58;;;;;;;8.75;3.97;;;;;19.70;100824.00;;;;13103964;22;20198;-71
2022/09/10 15:18:00;;;;;;;5.93;3.50;;;;;19.80;100833.00;;;;13126983;22;20163;-71
2022/09/10 15:23:01;;;;;;;3.10;2.80;;;;;19.80;100838.00;;;;13150723;22;20163;-71
2022/09/10 15:28:03;;;;;;;5.75;3.20;;;;;20.20;100844.00;;;;13091403;22;20206;-72
2022/09/10 15:33:07;;;;;;;5.63;3.28;;;;;20.00;100862.00;;;;13099782;22;20218;-72
2022/09/10 15:38:12;;;;;;;6.15;2.92;;;;;20.00;100876.00;;;;13177356;22;20159;-71
2022/09/10 15:43:13;;;;;;;6.43;3.40;;;;;19.80;100877.00;;;;13076525;22;20174;-72
2022/09/10 15:48:14;;;;;;;7.70;3.80;;;;;19.70;100878.00;;;;13103568;22;20200;-71
2022/09/10 15:53:16;;;;;;;8.20;4.00;;;;;19.50;100894.00;;;;13126293;22;20189;-72
2022/09/10 15:58:17;;;;;;;8.68;3.75;;;;;19.30;100896.00;;;;13152557;22;20154;-71
2022/09/10 16:03:19;;;;;;;7.57;3.83;;;;;19.10;100882.00;;;;13102117;22;20221;-72
2022/09/10 16:08:20;;;;;;;7.57;3.90;;;;;19.30;100895.00;;;;13104317;22;20167;-71
2022/09/10 16:13:23;;;;;;;7.43;4.00;;;;;19.50;100898.00;;;;13116381;22;20217;-71
2022/09/10 16:18:26;;;;;;;8.30;4.28;;;;;19.10;100895.00;;;;13091877;22;20976;-72
2022/09/10 16:23:27;;;;;;;7.47;4.10;;;;;18.90;100889.00;;;;13121697;22;20181;-72
2022/09/10 16:28:33;;;;;;;8.32;4.20;;;;;18.70;100903.00;;;;13066934;22;20175;-72
2022/09/10 16:33:37;;;;;;;8.38;4.22;;;;;18.50;100906.00;;;;13141835;22;20187;-72
2022/09/10 16:38:40;;;;;;;4.32;3.25;;;;;18.40;100897.00;;;;13143894;22;20619;-72
2022/09/10 16:43:41;;;;;;;4.78;2.92;;;;;18.50;100910.00;;;;13126176;22;20162;-72
2022/09/10 16:48:43;;;;;;;5.13;3.15;;;;;18.50;100911.00;;;;13102797;22;20173;-72
2022/09/10 16:53:54;;;;;;;6.45;3.45;;;;;18.50;100911.00;;;;13105950;22;20564;-72
2022/09/10 16:58:56;;;;;;;5.63;4.32;;;;;18.50;100920.00;;;;13102923;22;20171;-72
2022/09/10 17:03:57;;;;;;;9.80;4.60;;;;;18.50;100916.00;;;;13103559;22;20224;-72
2022/09/10 17:09:00;;;;;;;6.90;4.53;;;;;18.80;100915.00;;;;13101322;22;20671;-72
2022/09/10 17:14:01;;;;;;;6.82;4.43;;;;;19.00;100916.00;;;;13124641;22;20187;-72
2022/09/10 17:19:25;;;;;;;9.73;4.50;;;;;18.90;100913.00;;;;13127899;22;20608;-71
2022/09/10 17:24:26;;;;;;;5.63;4.22;;;;;18.80;100926.00;;;;13075046;22;20213;-71
2022/09/10 17:29:27;;;;;;;9.70;5.88;;;;;18.80;100935.00;;;;13077088;22;20171;-71
2022/09/10 17:34:29;;;;;;;12.00;5.85;;;;;18.70;100944.00;;;;13102303;22;20191;-71
2022/09/10 17:39:30;;;;;;;10.30;5.32;;;;;18.30;100944.00;;;;13077296;22;20173;-71
2022/09/10 17:44:31;;;;;;;10.55;5.80;;;;;18.00;100951.00;;;;13151111;22;20167;-71
2022/09/10 17:49:32;;;;;;;11.90;5.78;;;;;17.80;100941.00;;;;13078338;22;20175;-71
2022/09/10 17:54:33;;;;;;;9.10;5.13;;;;;17.60;100942.00;;;;13152559;22;20813;-71
2022/09/10 17:59:35;;;;;;;9.80;5.18;;;;;17.50;100946.00;;;;13106106;22;20167;-71
2022/09/10 18:04:36;;;;;;;12.50;4.43;;;;;17.40;100944.00;;;;13103691;22;20171;-71
2022/09/10 18:09:38;;;;;;;8.43;4.43;;;;;17.30;100956.00;;;;13104823;22;20166;-71
2022/09/10 18:14:39;;;;;;;11.30;5.38;;;;;17.20;100962.00;;;;13105811;22;20197;-71
2022/09/10 18:19:40;;;;;;;9.50;5.43;;;;;17.20;100972.00;;;;13148514;22;20166;-71
2022/09/10 18:24:41;;;;;;;9.85;5.63;;;;;17.10;100982.00;;;;13181200;22;20165;-71
2022/09/10 18:29:43;;;;;;;8.75;5.15;;;;;17.00;100984.00;;;;13108073;22;20198;-71
2022/09/10 18:34:45;;;;;;;7.60;5.20;;;;;16.90;100987.00;;;;13102898;22;20188;-71
2022/09/10 18:39:46;;;;;;;14.05;7.38;;;;;16.80;100993.00;;;;13078342;22;20175;-71
2022/09/10 18:44:47;;;;;;;10.73;6.28;;;;;16.80;101001.00;;;;13100323;22;20209;-71
2022/09/10 18:49:49;;;;;;;9.00;6.18;;;;;16.70;101013.00;;;;13079858;22;20174;-71
2022/09/10 18:54:50;;;;;;;7.07;6.38;;;;;16.70;101011.00;;;;13127549;22;20257;-71
2022/09/10 18:59:53;;;;;;;10.10;7.22;;;;;16.70;101032.00;;;;13075741;22;20229;-71
2022/09/10 19:04:55;;;;;;;13.32;6.53;;;;;16.60;101036.00;;;;13123614;22;20193;-71
2022/09/10 19:10:12;;;;;;;11.63;7.10;;;;;16.50;101049.00;;;;13104120;22;20181;-70
2022/09/10 19:15:13;;;;;;;14.00;7.15;;;;;16.40;101046.00;;;;13148401;22;20637;-71
2022/09/10 19:20:14;;;;;;;14.25;7.40;;;;;16.40;101063.00;;;;13124270;22;20186;-71
2022/09/10 19:25:15;;;;;;;13.85;7.70;;;;;16.30;101067.00;;;;13151503;22;20892;-71
2022/09/10 19:30:17;;;;;;;11.07;7.47;;;;;16.30;101068.00;;;;13104885;22;20245;-71
2022/09/10 19:35:18;;;;;;;12.93;6.90;;;;;16.20;101083.00;;;;13152631;22;20412;-71
2022/09/10 19:40:19;;;;;;;13.93;7.95;;;;;16.20;101091.00;;;;13102492;22;20254;-71
2022/09/10 19:45:21;;;;;;;14.82;8.70;;;;;16.20;101093.00;;;;13126727;22;20159;-71
2022/09/10 19:50:22;;;;;;;15.70;8.90;;;;;16.20;101106.00;;;;13105299;22;20731;-71
2022/09/10 19:55:25;;;;;;;15.57;8.80;;;;;16.30;101118.00;;;;13107170;22;20908;-71
2022/09/10 20:00:27;;;;;;;11.40;8.15;;;;;16.30;101123.00;;;;13080860;22;20179;-71
2022/09/10 20:05:48;;;;;;;17.48;9.00;;;;;16.30;101124.00;;;;13128092;22;20227;-71
2022/09/10 20:10:50;;;;;;;12.27;7.95;;;;;16.40;101130.00;;;;13130263;22;20170;-71
2022/09/10 20:15:52;;;;;;;13.30;8.90;;;;;16.50;101129.00;;;;13077526;22;20427;-71
2022/09/10 20:20:54;;;;;;;15.73;8.20;;;;;16.40;101128.00;;;;13125746;22;20187;-71
2022/09/10 20:25:55;;;;;;;12.93;8.32;;;;;16.30;101133.00;;;;13101186;22;20201;-71
2022/09/10 20:31:07;;;;;;;15.03;7.63;;;;;16.20;101138.00;;;;13126085;22;20161;-71
2022/09/10 20:36:11;;;;;;;13.80;7.90;;;;;16.10;101139.00;;;;13077549;22;20503;-71
2022/09/10 20:41:14;;;;;;;11.60;8.55;;;;;16.00;101134.00;;;;13151188;22;20162;-71
2022/09/10 20:46:16;;;;;;;15.48;8.35;;;;;16.00;101134.00;;;;13127276;22;20160;-71
2022/09/10 20:51:21;;;;;;;10.90;7.63;;;;;16.00;101144.00;;;;13104408;22;20181;-71
2022/09/10 20:56:23;;;;;;;12.30;8.80;;;;;16.10;101157.00;;;;13078764;22;20255;-73
2022/09/10 21:01:26;;;;;;;14.35;8.77;;;;;16.20;101158.00;;;;13101751;22;20177;-73
2022/09/10 21:06:30;;;;;;;15.05;9.23;;;;;16.20;101152.00;;;;13078436;22;20182;-71
2022/09/10 21:11:35;;;;;;;14.90;8.70;;;;;16.10;101155.00;;;;13178977;22;20162;-73
2022/09/10 21:16:42;;;;;;;17.75;8.63;;;;;16.00;101164.00;;;;13105022;22;20335;-71
2022/09/10 21:21:44;;;;;;;16.80;9.73;;;;;15.90;101159.00;;;;13152573;22;20159;-71
2022/09/10 21:26:46;;;;;;;14.82;9.40;;;;;15.80;101158.00;;;;13124767;22;20235;-72
2022/09/10 21:31:49;;;;;;;13.13;8.95;;;;;15.80;101156.00;;;;13078504;22;20165;-71
2022/09/10 21:36:50;;;;;;;17.65;9.48;;;;;15.70;101146.00;;;;13151598;22;20239;-71
2022/09/10 21:41:52;;;;;;;13.63;8.60;;;;;15.60;101164.00;;;;13127656;22;20175;-71
2022/09/10 21:46:53;;;;;;;17.40;10.80;;;;;15.40;101170.00;;;;13179447;22;20165;-71
2022/09/10 21:51:54;;;;;;;17.20;10.90;;;;;15.40;101184.00;;;;13078183;22;20190;-71
2022/09/10 21:56:56;;;;;;;16.15;10.80;;;;;15.40;101177.00;;;;13151532;22;20641;-71
2022/09/10 22:01:57;;;;;;;18.53;11.03;;;;;15.30;101191.00;;;;13125324;22;20178;-71
2022/09/10 22:06:58;;;;;;;13.63;11.35;;;;;15.30;101190.00;;;;13153730;22;20167;-71
2022/09/10 22:11:59;;;;;;;20.63;11.60;;;;;15.20;101191.00;;;;13079155;22;20183;-71
2022/09/10 22:17:01;;;;;;;17.50;12.23;;;;;15.20;101193.00;;;;13102253;22;20199;-71
2022/09/10 22:22:03;;;;;;;18.43;11.70;;;;;15.00;101199.00;;;;13074464;22;20190;-71
2022/09/10 22:27:05;;;;;;;19.67;12.80;;;;;15.00;101204.00;;;;13127371;22;20215;-71
2022/09/10 22:32:07;;;;;;;20.63;13.10;;;;;14.90;101204.00;;;;13106937;22;20177;-71
2022/09/10 22:37:08;;;;;;;18.47;12.80;;;;;14.80;101200.00;;;;13153940;22;20752;-71
2022/09/10 22:42:09;;;;;;;20.70;15.13;;;;;14.80;101215.00;;;;13127811;22;20162;-71
2022/09/10 22:47:10;;;;;;;25.50;14.40;;;;;14.70;101206.00;;;;13154838;22;20166;-71
2022/09/10 22:52:12;;;;;;;22.73;15.13;;;;;14.60;101208.00;;;;13106689;22;20166;-71
2022/09/10 22:57:13;;;;;;;24.83;15.40;;;;;14.60;101210.00;;;;13153883;22;20187;-71
2022/09/10 23:02:15;;;;;;;22.47;14.07;;;;;14.50;101218.00;;;;13106440;22;20174;-71
2022/09/10 23:07:17;;;;;;;24.27;15.87;;;;;14.50;101222.00;;;;13107284;22;20626;-71
2022/09/10 23:12:21;;;;;;;25.93;16.57;;;;;14.50;101228.00;;;;13055594;22;20194;-71
2022/09/10 23:17:22;;;;;;;26.87;17.03;;;;;14.40;101226.00;;;;13132740;22;20220;-71
2022/09/10 23:22:23;;;;;;;27.13;19.30;;;;;14.40;101234.00;;;;13133058;22;20197;-71
2022/09/10 23:27:24;;;;;;;26.03;17.70;;;;;14.40;101199.00;;;;13080926;22;20255;-71
2022/09/10 23:32:26;;;;;;;25.33;16.83;;;;;14.30;101179.00;;;;13128591;22;20158;-71
2022/09/10 23:37:27;;;;;;;33.93;18.47;;;;;14.30;101181.00;;;;13106805;22;20238;-73
2022/09/10 23:42:30;;;;;;;31.93;20.03;;;;;14.30;101202.00;;;;13155469;22;20738;-71
2022/09/10 23:47:31;;;;;;;39.03;22.27;;;;;14.40;101226.00;;;;13155001;22;20167;-71
2022/09/10 23:52:32;;;;;;;35.73;21.53;;;;;14.50;101243.00;;;;13180333;22;20169;-71
2022/09/10 23:57:33;;;;;;;38.57;22.23;;;;;14.50;101266.00;;;;13133641;22;20190;-71
